Terminal Aerodrome Forecast
Issued by NWS Bismarck, ND

Home | Current Version | Previous Version | Graphics & Text | Print | Product List | Glossary On
Versions: 1 2 3 4 5 6 7 8 9 10 11 12 13 14 15 16 17 18 19 20 21 22 23
170
FTUS43 KBIS 071120
TAFBIS
TAF
KBIS 071120Z 0712/0812 30020G27KT P6SM OVC040
     FM071700 30020G28KT P6SM OVC030
     FM072100 30021G31KT P6SM BKN015
     FM080200 31016KT P6SM OVC015=

USA.gov is the U.S. government's official web portal to all federal, state and local government web resources and services.